createdAt,value
2023-06-24T07:02:54.612Z,94.18
2023-06-24T07:05:24.296Z,93.79
2023-06-24T07:07:55.247Z,93.32
2023-06-24T07:10:25.655Z,92.99
2023-06-24T07:12:59.661Z,92.92
2023-06-24T07:15:32.258Z,90.04
2023-06-24T07:18:01.494Z,88.93
2023-06-24T07:20:30.532Z,87.45
2023-06-24T07:22:59.646Z,85.03
2023-06-24T07:25:29.926Z,85.61
2023-06-24T07:27:58.850Z,84.93
2023-06-24T07:30:28.143Z,86.24
2023-06-24T07:32:57.088Z,84.37
2023-06-24T07:35:25.909Z,82.41
2023-06-24T07:37:54.759Z,81.82
2023-06-24T07:40:23.567Z,80.28
2023-06-24T07:42:52.400Z,73.68
2023-06-24T07:45:21.481Z,71.10
2023-06-24T07:47:50.340Z,70.06
2023-06-24T07:50:19.375Z,68.77
2023-06-24T07:52:48.310Z,68.40
2023-06-24T07:55:17.329Z,67.80
2023-06-24T07:57:48.530Z,68.30
2023-06-24T08:00:18.575Z,68.25
2023-06-24T08:02:48.394Z,66.80
2023-06-24T08:05:19.919Z,67.45
2023-06-24T08:07:48.870Z,66.71
2023-06-24T08:10:17.654Z,66.41
2023-06-24T08:12:46.597Z,66.71
2023-06-24T08:15:15.457Z,66.88
2023-06-24T08:17:44.979Z,66.47
2023-06-24T08:20:13.824Z,66.54
2023-06-24T08:22:42.613Z,66.66
2023-06-24T08:25:11.361Z,66.80
2023-06-24T08:27:40.230Z,64.45
2023-06-24T08:30:09.658Z,62.64
2023-06-24T08:32:38.429Z,62.50
2023-06-24T08:35:09.688Z,61.30
2023-06-24T08:37:39.121Z,62.71
2023-06-24T08:40:08.701Z,63.15
2023-06-24T08:42:38.054Z,62.12
2023-06-24T08:45:08.785Z,61.94
2023-06-24T08:47:37.994Z,61.11
2023-06-24T08:50:17.768Z,61.64
2023-06-24T08:52:56.386Z,61.69
2023-06-24T08:55:29.801Z,61.26
2023-06-24T08:57:58.781Z,60.70
2023-06-24T09:00:28.756Z,60.92
2023-06-24T09:02:57.704Z,61.42
2023-06-24T09:05:26.500Z,61.58
2023-06-24T09:07:55.290Z,61.57
2023-06-24T09:10:38.354Z,60.48
2023-06-24T09:13:08.437Z,60.12
2023-06-24T09:15:39.360Z,60.57
2023-06-24T09:18:08.367Z,60.40
2023-06-24T09:20:41.169Z,60.90
2023-06-24T09:23:10.053Z,60.33
2023-06-24T09:25:39.009Z,60.29
2023-06-24T09:28:08.186Z,60.80
2023-06-24T09:30:37.036Z,61.20
2023-06-24T09:33:06.351Z,60.81
2023-06-24T09:35:38.218Z,60.97
2023-06-24T09:38:07.115Z,60.33
2023-06-24T09:40:38.287Z,59.70
2023-06-24T09:43:07.358Z,58.38
2023-06-24T09:45:36.787Z,57.40
2023-06-24T09:48:06.512Z,57.55
2023-06-24T09:50:35.816Z,57.71
2023-06-24T09:53:06.075Z,57.88
2023-06-24T09:55:35.523Z,57.05
2023-06-24T09:58:05.682Z,56.62
2023-06-24T10:00:34.967Z,56.34
2023-06-24T10:03:04.943Z,56.27
2023-06-24T10:05:34.361Z,55.33
2023-06-24T10:08:06.923Z,56.00
2023-06-24T10:10:36.334Z,55.86
2023-06-24T10:13:05.876Z,56.60
2023-06-24T10:15:36.578Z,57.02
2023-06-24T10:18:38.891Z,56.90
2023-06-24T10:21:10.437Z,56.23
2023-06-24T10:23:49.051Z,55.56
2023-06-24T10:26:29.953Z,54.75
2023-06-24T10:29:07.906Z,54.79
2023-06-24T10:31:45.670Z,53.94
2023-06-24T10:34:20.891Z,53.93
2023-06-24T10:37:03.581Z,53.71
2023-06-24T10:39:59.480Z,52.80
2023-06-24T10:42:44.733Z,52.53
2023-06-24T10:45:15.257Z,51.56
2023-06-24T10:47:54.292Z,49.79
2023-06-24T10:50:25.520Z,50.26
2023-06-24T10:52:57.412Z,49.07
2023-06-24T10:55:29.994Z,49.35
2023-06-24T10:58:14.058Z,48.46
2023-06-24T11:00:48.301Z,47.82
2023-06-24T11:03:23.330Z,47.32
2023-06-24T11:05:52.350Z,47.87
2023-06-24T11:08:22.382Z,46.27
2023-06-24T11:10:51.246Z,45.80
2023-06-24T11:13:22.274Z,45.29
2023-06-24T11:15:51.161Z,45.01
2023-06-24T11:18:20.284Z,44.21
2023-06-24T11:20:49.360Z,42.90
2023-06-24T11:23:18.452Z,43.86
2023-06-24T11:25:47.477Z,45.34
2023-06-24T11:28:23.025Z,43.55
2023-06-24T11:30:52.738Z,42.85
2023-06-24T11:33:29.505Z,43.67
2023-06-24T11:35:58.507Z,42.91
2023-06-24T11:38:33.608Z,42.10
2023-06-24T11:41:03.554Z,41.80
2023-06-24T11:43:32.626Z,41.43
2023-06-24T11:46:01.658Z,41.36
2023-06-24T11:48:30.736Z,41.38
2023-06-24T11:50:59.841Z,39.89
2023-06-24T11:53:42.629Z,38.56
2023-06-24T11:56:11.854Z,38.18
2023-06-24T11:58:41.053Z,37.78
2023-06-24T12:01:10.038Z,37.02
2023-06-24T12:03:39.067Z,36.22
2023-06-24T12:06:08.072Z,36.08
2023-06-24T12:08:51.507Z,36.20
2023-06-24T12:11:21.096Z,36.40
2023-06-24T12:13:50.408Z,37.30
2023-06-24T12:16:19.130Z,38.05
2023-06-24T12:18:47.865Z,38.18
2023-06-24T12:21:16.689Z,38.87
2023-06-24T12:23:46.281Z,37.29
2023-06-24T12:26:15.224Z,36.82
2023-06-24T12:28:44.043Z,37.06
2023-06-24T12:31:13.298Z,36.40
2023-06-24T12:33:42.077Z,37.64
2023-06-24T12:36:10.809Z,37.74
2023-06-24T12:38:39.533Z,36.62
2023-06-24T12:41:08.339Z,36.98
2023-06-24T12:43:37.179Z,36.68
2023-06-24T12:46:05.998Z,35.97
2023-06-24T12:48:34.696Z,36.02
2023-06-24T12:51:03.475Z,37.28
2023-06-24T12:53:32.221Z,37.28
2023-06-24T12:56:01.038Z,36.24
2023-06-24T12:58:29.789Z,35.24
2023-06-24T13:00:58.556Z,36.36
2023-06-24T13:03:27.473Z,37.08
2023-06-24T13:05:56.191Z,38.08
2023-06-24T13:08:24.963Z,39.95
2023-06-24T13:10:53.718Z,41.90
2023-06-24T13:13:22.536Z,43.50
2023-06-24T13:15:51.377Z,43.73
2023-06-24T13:18:20.916Z,44.57
2023-06-24T13:20:50.792Z,45.86
2023-06-24T13:23:19.799Z,46.36
2023-06-24T13:25:48.603Z,46.37
2023-06-24T13:28:17.380Z,47.59
2023-06-24T13:30:46.222Z,47.43
2023-06-24T13:33:15.041Z,48.80
2023-06-24T13:35:43.896Z,49.88
2023-06-24T13:38:13.477Z,50.23
2023-06-24T13:40:42.359Z,49.89
2023-06-24T13:43:11.354Z,50.14
2023-06-24T13:45:40.176Z,50.78
2023-06-24T13:48:08.912Z,51.05
2023-06-24T13:50:37.991Z,50.73
2023-06-24T13:53:07.053Z,51.65
2023-06-24T13:55:37.494Z,52.65
2023-06-24T13:58:06.266Z,52.97
2023-06-24T14:00:35.229Z,53.16
2023-06-24T14:03:04.405Z,53.50
2023-06-24T14:05:33.157Z,52.49
2023-06-24T14:08:01.832Z,52.52
2023-06-24T14:10:30.614Z,52.36
2023-06-24T14:12:59.296Z,51.85
2023-06-24T14:15:28.099Z,51.91
2023-06-24T14:17:56.852Z,51.92
2023-06-24T14:20:26.195Z,52.51
2023-06-24T14:22:54.942Z,51.84
2023-06-24T14:25:23.732Z,51.35
2023-06-24T14:27:52.514Z,51.25
2023-06-24T14:30:21.351Z,51.32
2023-06-24T14:32:50.126Z,50.96
2023-06-24T14:35:18.987Z,51.16
2023-06-24T14:37:47.749Z,51.15
2023-06-24T14:40:16.563Z,50.73
2023-06-24T14:42:45.352Z,50.68
2023-06-24T14:45:14.537Z,51.97
2023-06-24T14:47:43.619Z,51.40
2023-06-24T14:50:12.443Z,51.53
2023-06-24T14:52:41.108Z,51.68
2023-06-24T14:55:10.541Z,52.92
2023-06-24T14:57:40.067Z,53.10
2023-06-24T15:00:10.036Z,52.93
2023-06-24T15:02:38.842Z,53.60
2023-06-24T15:05:08.149Z,53.86
2023-06-24T15:07:38.633Z,53.45
2023-06-24T15:10:08.206Z,53.47
2023-06-24T15:12:36.996Z,53.49
2023-06-24T15:15:06.581Z,52.57
2023-06-24T15:17:36.543Z,51.97
2023-06-24T15:20:06.389Z,52.04
2023-06-24T15:22:35.270Z,53.07
2023-06-24T15:25:05.248Z,52.55
2023-06-24T15:27:35.959Z,52.77
2023-06-24T15:30:06.253Z,54.21
2023-06-24T15:32:35.110Z,53.93
2023-06-24T15:35:05.171Z,53.99
2023-06-24T15:37:34.037Z,53.79
2023-06-24T15:40:02.867Z,53.61
2023-06-24T15:42:31.942Z,53.72
2023-06-24T15:45:00.833Z,53.95
2023-06-24T15:47:29.694Z,54.50
2023-06-24T15:49:59.091Z,54.59
2023-06-24T15:52:28.201Z,54.98
2023-06-24T15:54:56.907Z,54.29
2023-06-24T15:57:26.052Z,53.42
2023-06-24T15:59:54.808Z,53.05
2023-06-24T16:02:23.662Z,53.42
2023-06-24T16:04:52.531Z,53.66
2023-06-24T16:07:21.514Z,53.19
2023-06-24T16:09:50.334Z,53.02
2023-06-24T16:12:19.575Z,53.40
2023-06-24T16:14:48.887Z,53.79
2023-06-24T16:17:18.259Z,54.82
2023-06-24T16:19:48.210Z,55.55
2023-06-24T16:22:17.855Z,55.68
2023-06-24T16:24:47.559Z,55.41
2023-06-24T16:27:18.542Z,55.99
2023-06-24T16:29:48.513Z,56.69
2023-06-24T16:32:17.395Z,56.45
2023-06-24T16:34:46.089Z,57.20
2023-06-24T16:37:14.879Z,58.14
2023-06-24T16:39:44.001Z,59.26
2023-06-24T16:42:13.236Z,58.75
2023-06-24T16:44:42.254Z,58.17
2023-06-24T16:47:11.460Z,59.23
2023-06-24T16:49:40.780Z,59.50
2023-06-24T16:52:10.720Z,59.56
2023-06-24T16:54:39.801Z,59.63
2023-06-24T16:57:08.606Z,61.17
2023-06-24T16:59:37.475Z,62.05
2023-06-24T17:02:08.163Z,62.78
2023-06-24T17:04:37.128Z,62.80
2023-06-24T17:07:05.997Z,61.77
2023-06-24T17:09:34.760Z,61.01
2023-06-24T17:12:04.200Z,61.01
2023-06-24T17:14:32.990Z,60.80
2023-06-24T17:17:01.726Z,60.79
2023-06-24T17:19:30.410Z,59.99
2023-06-24T17:21:59.197Z,59.54
2023-06-24T17:24:28.044Z,59.23
2023-06-24T17:26:56.780Z,58.81
2023-06-24T17:29:25.471Z,58.41
2023-06-24T17:31:54.193Z,58.39
2023-06-24T17:34:22.991Z,58.17
2023-06-24T17:36:51.752Z,57.95
2023-06-24T17:39:20.427Z,57.65
2023-06-24T17:41:49.144Z,57.84
2023-06-24T17:44:17.895Z,58.19
2023-06-24T17:46:46.664Z,59.05
2023-06-24T17:49:15.453Z,59.77
2023-06-24T17:51:44.144Z,60.32
2023-06-24T17:54:12.956Z,61.35
2023-06-24T17:56:41.631Z,61.99
2023-06-24T17:59:10.388Z,63.78
2023-06-24T18:01:39.202Z,63.99
2023-06-24T18:04:07.983Z,64.29
2023-06-24T18:06:36.693Z,65.21
2023-06-24T18:09:05.433Z,65.78
2023-06-24T18:11:34.178Z,65.74
2023-06-24T18:14:02.889Z,67.00
2023-06-24T18:16:31.627Z,68.48
2023-06-24T18:19:00.534Z,70.85
2023-06-24T18:21:29.324Z,70.25
2023-06-24T18:23:58.399Z,70.82
2023-06-24T18:26:27.429Z,70.50
2023-06-24T18:28:56.150Z,72.23
2023-06-24T18:31:24.968Z,72.43
2023-06-24T18:33:56.577Z,71.91
2023-06-24T18:36:26.774Z,71.93
2023-06-24T18:38:55.536Z,72.47
2023-06-24T18:41:24.294Z,72.74
2023-06-24T18:43:53.030Z,73.25
2023-06-24T18:46:21.738Z,73.15
2023-06-24T18:48:50.517Z,73.79
2023-06-24T18:51:19.216Z,73.47
2023-06-24T18:53:49.280Z,73.39
2023-06-24T18:56:17.950Z,73.96
2023-06-24T18:58:46.687Z,74.14
2023-06-24T19:01:15.437Z,74.01
2023-06-24T19:03:44.918Z,74.64
2023-06-24T19:06:13.673Z,74.94
2023-06-24T19:08:42.411Z,75.12
2023-06-24T19:11:11.162Z,75.68
2023-06-24T19:13:39.828Z,75.95
2023-06-24T19:16:08.902Z,76.49
2023-06-24T19:18:37.726Z,77.19
2023-06-24T19:21:06.502Z,76.99
2023-06-24T19:23:35.346Z,78.05
2023-06-24T19:26:04.190Z,77.95
2023-06-24T19:28:33.270Z,78.84
2023-06-24T19:31:02.548Z,78.42
2023-06-24T19:33:31.626Z,78.54
2023-06-24T19:36:00.365Z,78.97
2023-06-24T19:38:29.110Z,79.40
2023-06-24T19:40:57.884Z,79.87
2023-06-24T19:43:26.626Z,80.30
2023-06-24T19:45:55.303Z,81.21
2023-06-24T19:48:24.154Z,80.94
2023-06-24T19:50:52.878Z,81.39
2023-06-24T19:53:21.564Z,81.43
2023-06-24T19:55:50.329Z,81.56
2023-06-24T19:58:19.033Z,82.45
2023-06-24T20:00:47.708Z,82.77
2023-06-24T20:03:16.526Z,83.12
2023-06-24T20:05:45.353Z,82.76
2023-06-24T20:08:14.048Z,84.06
2023-06-24T20:10:42.917Z,83.37
2023-06-24T20:13:11.724Z,83.71
2023-06-24T20:15:40.510Z,83.51
2023-06-24T20:18:09.530Z,84.27
2023-06-24T20:20:38.604Z,84.02
2023-06-24T20:23:07.602Z,85.18
2023-06-24T20:25:36.336Z,87.03
2023-06-24T20:28:06.664Z,86.22
2023-06-24T20:30:37.070Z,86.41
2023-06-24T20:33:06.784Z,86.19
2023-06-24T20:35:39.321Z,87.73
2023-06-24T20:38:08.473Z,89.43
2023-06-24T20:40:37.997Z,88.72
2023-06-24T20:43:07.187Z,88.93
2023-06-24T20:45:35.887Z,90.30
2023-06-24T20:48:04.715Z,89.62
2023-06-24T20:50:33.393Z,90.40
2023-06-24T20:53:02.054Z,89.94
2023-06-24T20:55:30.706Z,90.15
2023-06-24T20:57:59.549Z,91.10
2023-06-24T21:00:28.399Z,91.12
2023-06-24T21:02:57.192Z,91.05
2023-06-24T21:05:26.524Z,90.79
2023-06-24T21:07:55.314Z,89.84
2023-06-24T21:10:24.086Z,90.02
2023-06-24T21:12:58.377Z,89.46
2023-06-24T21:15:27.977Z,88.80
2023-06-24T21:17:56.791Z,88.15
2023-06-24T21:20:25.592Z,88.47
2023-06-24T21:22:54.267Z,88.22
2023-06-24T21:25:23.084Z,88.41
2023-06-24T21:27:51.878Z,89.16
2023-06-24T21:30:21.014Z,89.48
2023-06-24T21:32:49.775Z,89.38
2023-06-24T21:35:18.693Z,89.61
2023-06-24T21:37:47.440Z,89.08
2023-06-24T21:40:16.598Z,88.65
2023-06-24T21:42:45.296Z,88.96
2023-06-24T21:45:13.989Z,89.52
2023-06-24T21:47:42.671Z,89.15
2023-06-24T21:50:11.747Z,89.32
2023-06-24T21:52:40.522Z,89.54
2023-06-24T21:55:09.638Z,89.85
2023-06-24T21:57:39.233Z,90.32
2023-06-24T22:00:16.301Z,91.96
2023-06-24T22:02:48.323Z,91.07
2023-06-24T22:05:25.191Z,91.51
2023-06-24T22:07:58.310Z,92.30
2023-06-24T22:10:27.039Z,91.60
2023-06-24T22:12:55.780Z,93.04
2023-06-24T22:15:24.576Z,94.10
2023-06-24T22:17:53.399Z,94.77
2023-06-24T22:20:22.236Z,96.57
2023-06-24T22:22:51.052Z,97.73
2023-06-24T22:25:19.832Z,98.89
2023-06-24T22:27:48.658Z,99.58
2023-06-24T22:30:17.466Z,99.91
2023-06-24T22:32:46.226Z,99.99
2023-06-24T22:35:15.004Z,100.00
2023-06-24T22:37:44.027Z,100.00
2023-06-24T22:40:12.944Z,100.00
2023-06-24T22:42:41.712Z,100.00
2023-06-24T22:45:12.876Z,100.00
2023-06-24T22:47:42.601Z,100.00
2023-06-24T22:50:11.844Z,100.00
2023-06-24T22:52:42.927Z,100.00
2023-06-24T22:55:11.714Z,100.00
2023-06-24T22:57:40.500Z,100.00
2023-06-24T23:00:10.150Z,100.00
2023-06-24T23:02:39.461Z,100.00
2023-06-24T23:05:09.501Z,100.00
2023-06-24T23:07:38.761Z,100.00
2023-06-24T23:10:09.055Z,100.00
2023-06-24T23:12:38.747Z,100.00
2023-06-24T23:15:08.628Z,100.00
2023-06-24T23:17:38.022Z,100.00
2023-06-24T23:20:07.713Z,100.00
2023-06-24T23:22:36.821Z,100.00
2023-06-24T23:25:06.469Z,100.00
2023-06-24T23:27:38.028Z,100.00
2023-06-24T23:30:08.603Z,100.00
2023-06-24T23:32:42.553Z,100.00
2023-06-24T23:35:12.840Z,100.00
2023-06-24T23:37:41.777Z,100.00
2023-06-24T23:40:11.392Z,100.00
2023-06-24T23:42:42.111Z,100.00
2023-06-24T23:45:11.836Z,100.00
2023-06-24T23:47:40.622Z,100.00
2023-06-24T23:50:09.838Z,100.00
2023-06-24T23:52:38.583Z,100.00
2023-06-24T23:55:09.223Z,100.00
2023-06-24T23:57:37.899Z,100.00
